METAR AND TAF INFORMATION
METAR FOR LSGG
ADDS - METARS form results

(2023 UTC 22 April 2019)
Data provider http://aviationweather.gov/metar/data/
 
METAR text: LSGG 222020Z VRB03KT CAVOK 16/07 Q0999 NOSIG
Conditions at: LSGG (GENEVA/COINTRIN , CH) observed 2020 UTC 22 April 2019
Temperature: 16.0°C (61°F)
Dewpoint: 7.0°C (45°F) [RH = 55%]
Pressure (altimeter): 29.50 inches Hg (999.0 mb)
Winds: variable direction winds at 3 MPH (3 knots; 1.5 m/s)
Visibility: 6 or more miles (10+ km)
Ceiling: ceiling and visibility are OK
Clouds: unknown
Weather: no significant weather observed at this time

METAR text: LSGG 221950Z VRB03KT CAVOK 17/07 Q1000 NOSIG
Conditions at: LSGG (GENEVA/COINTRIN , CH) observed 1950 UTC 22 April 2019
Temperature: 17.0°C (63°F)
Dewpoint: 7.0°C (45°F) [RH = 52%]
Pressure (altimeter): 29.53 inches Hg (1000.0 mb)
Winds: variable direction winds at 3 MPH (3 knots; 1.5 m/s)
Visibility: 6 or more miles (10+ km)
Ceiling: ceiling and visibility are OK
Clouds: unknown
Weather: no significant weather observed at this time

Forecast for: LSGG (GENEVA/COINTRIN , CH)
Text: TAF LSGG 221725Z 2218/2324 VRB03KT CAVOK TX23/2315Z TN08/2305Z
Forecast period: 1800 UTC 22 April 2019 to 0000 UTC 23 April 2019
Forecast type: FROM: standard forecast or significant change
Winds: variable direction winds at 3 MPH (3 knots; 1.5 m/s)
Visibility: 6 or more miles 10+ km)
Ceiling: unknown
Clouds: missing
Weather: no significant weather forecast for this period
Text: BECMG 2300/2302 9999 FEW050 BKN100
Forecast period: 0000 UTC 23 April 2019 to 0000 UTC 24 April 2019
Forecast type: BECOMING: Conditions expected to become as follows by 0200 UTC 23 April 2019
Winds: variable direction winds at 3 MPH (3 knots; 1.5 m/s)
Visibility: 6 or more miles 10+ km)
Ceiling: 10000 feet AGL
Clouds: few clouds at 5000 feet AGL
broken clouds at 10000 feet AGL
Weather: no significant weather forecast for this period

 AIRPORT MAP

 RUNWAY INFORMATION
Runway 05 Runway length 12795 ft Runway width 164 ft
Runway elevation 1411 ft Runway displaced threshold 1082 ft Runway heading 46
Runway 23 Runway length 12795 ft Runway width 164 ft
Runway elevation 1365 ft Runway displaced threshold 0 ft Runway heading 226
Runway 05L Runway length 2700 ft Runway width 98 ft
Runway elevation 1378 ft Runway displaced threshold 613 ft Runway heading 46
Runway 23R Runway length 2700 ft Runway width 98 ft
Runway elevation 1393 ft Runway displaced threshold 994 ft Runway heading 226

 AIRPORT FREQUENCIES
Type APP Name APP Frequency 120.3 MHZ
Type ARR Name ARR Frequency 136.25 MHZ
Type ATIS Name ATIS Frequency 135.575 MHZ
Type DEP Name DEP Frequency 119.525 MHZ
Type GND Name GND Frequency 121.675 MHZ
Type GTE Name APN Frequency 121.75 MHZ
Type TWR Name TWR Frequency 118.7 MHZ

 AIRPORT NEAR NAVIGATION AIDS
Type NDB Name Gland Frequency 375 KHZ
Type VOR-DME Name Geneva Cointrin Frequency 115750 KHZ
Type VOR-DME Name Passeiry Frequency 116600 KHZ



Powered by Virtual Airlines Manager [v2.6.2]